Data for 02/12/2014

Time Sea-Level Adjusted Pressure Absolute Pressure Temperature Relative Humidity Dew Point   
(mb) (inHg) (mb) (inHg) (C) (F) (%) (C) (F)
00:05 1018 30.06 847 25.01 -5.8 21.6 58 -12.7 9.1
00:10 1018 30.06 847 25.01 -5.9 21.3 58 -12.9 8.8
00:15 1018 30.06 847 25.01 -6 21.2 59 -12.9 8.9
00:20 1018 30.06 847 25.01 -6.3 20.7 59 -13 8.7
00:25 1018 30.06 847 25.01 -6.6 20.1 60 -13.1 8.4
00:30 1018 30.06 847 25.01 -6 21.3 57 -13.2 8.3
00:35 1018 30.06 847 25.01 -5.5 22 57 -12.8 8.9
00:40 1018 30.06 847 25.01 -5.9 21.4 57 -13.2 8.2
00:45 1018 30.06 847 25.01 -5.9 21.5 57 -13.1 8.3
00:50 1017 30.03 847 25.01 -5.6 21.9 55 -13.2 8.3
00:55 1017 30.03 847 25.01 -5.6 22 56 -13 8.6
01:00 1017 30.03 847 25.01 -5.8 21.6 57 -13 8.7
01:05 1017 30.03 847 25.01 -5.6 22 54 -13.4 7.9
01:10 1017 30.03 847 25.01 -5.8 21.6 57 -13 8.6
01:15 1017 30.03 847 25.01 -5.8 21.6 55 -13.4 7.9
01:20 1017 30.03 847 25.01 -5.9 21.4 58 -12.9 8.7
01:25 1017 30.03 846 24.98 -6 21.3 57 -13.1 8.4
01:30 1017 30.03 846 24.98 -6 21.2 58 -13.1 8.5
01:35 1017 30.03 846 24.98 -6.2 20.9 59 -12.9 8.8
01:40 1017 30.03 846 24.98 -6 21.3 57 -13.2 8.3
01:45 1017 30.03 846 24.98 -5.7 21.8 56 -13.1 8.4
01:50 1017 30.03 846 24.98 -5.8 21.6 57 -12.9 8.7
01:55 1017 30.03 846 24.98 -5.8 21.5 57 -13 8.5
02:00 1017 30.03 846 24.98 -6 21.2 59 -12.8 8.9
02:05 1017 30.03 846 24.98 -5.9 21.4 57 -13.1 8.5
02:10 1017 30.03 846 24.98 -5.6 21.8 55 -13.3 8.1
02:15 1017 30.03 846 24.98 -5.4 22.3 54 -13.2 8.2
02:20 1017 30.03 846 24.98 -5.2 22.7 54 -13 8.6
02:25 1017 30.03 846 24.98 -5.4 22.3 55 -13 8.5
02:30 1017 30.03 846 24.98 -5.3 22.4 55 -13.1 8.5
02:35 1017 30.03 846 24.98 -5.2 22.6 55 -12.9 8.7
02:40 1017 30.03 846 24.98 -5 23 54 -13 8.6
02:45 1016 30 846 24.98 -4.8 23.3 53 -12.9 8.8
02:50 1016 30 845 24.95 -4.7 23.6 53 -12.9 8.7
02:55 1016 30 845 24.95 -4.6 23.8 53 -12.8 8.9
03:00 1016 30 845 24.95 -4.4 24 51 -13.1 8.5
03:05 1016 30 845 24.95 -4 24.7 50 -13 8.6
03:10 1016 30 845 24.95 -4 24.9 50 -12.9 8.8
03:15 1016 30 845 24.95 -3.8 25.1 50 -12.9 8.7
03:20 1016 30 845 24.95 -3.8 25.1 50 -12.9 8.8
03:25 1016 30 845 24.95 -3.8 25.2 49 -13.1 8.5
03:30 1015 29.97 845 24.95 -3.6 25.5 48 -13.2 8.3
03:35 1015 29.97 844 24.92 -3.4 26 47 -13.1 8.4
03:40 1015 29.97 844 24.92 -3.3 26.1 47 -13.2 8.3
03:45 1015 29.97 844 24.92 -3.2 26.3 47 -13.1 8.5
03:50 1015 29.97 844 24.92 -3.3 26 47 -13.2 8.2
03:55 1015 29.97 844 24.92 -3.2 26.2 45 -13.6 7.6
04:00 1015 29.97 844 24.92 -3 26.7 45 -13.3 8
04:05 1015 29.97 844 24.92 -2.9 26.8 45 -13.3 8.1
04:10 1015 29.97 844 24.92 -2.7 27.1 44 -13.4 7.8
04:15 1015 29.97 844 24.92 -2.6 27.3 44 -13.2 8.2
04:20 1015 29.97 844 24.92 -2.5 27.4 45 -12.9 8.7
04:25 1015 29.97 844 24.92 -2.5 27.5 43 -13.6 7.5
04:30 1015 29.97 844 24.92 -2.2 28.1 45 -12.7 9.2
04:35 1014 29.94 844 24.92 -2.8 27 47 -12.6 9.2
04:40 1014 29.94 843 24.89 -2.7 27.2 45 -13 8.5
04:45 1014 29.94 843 24.89 -2.7 27.1 46 -12.7 9.1
04:50 1014 29.94 843 24.89 -2.9 26.9 47 -12.7 9.2
04:55 1014 29.94 843 24.89 -2.9 26.8 47 -12.7 9.2
05:00 1014 29.94 843 24.89 -2.8 26.9 48 -12.5 9.5
05:05 1014 29.94 843 24.89 -2.7 27.2 47 -12.5 9.5
05:10 1013 29.91 843 24.89 -2.6 27.3 46 -12.6 9.2
05:15 1013 29.91 842 24.86 -2.5 27.5 47 -12.4 9.7
05:20 1013 29.91 842 24.86 -2.5 27.6 46 -12.5 9.4
05:25 1013 29.91 842 24.86 -2 28.3 47 -11.8 10.8
05:30 1013 29.91 842 24.86 -0.4 31.3 42 -11.7 10.9
05:35 1013 29.91 842 24.86 -0.7 30.7 44 -11.4 11.5
05:40 1013 29.91 842 24.86 -0.8 30.6 45 -11.4 11.6
05:45 1012 29.88 842 24.86 -1.1 30.1 46 -11.2 11.9
05:50 1012 29.88 842 24.86 -1 30.1 45 -11.6 11.1
05:55 1012 29.88 841 24.83 -1.1 30.1 45 -11.5 11.4
06:00 1012 29.88 841 24.83 -1.2 29.9 47 -11.1 12
06:05 1012 29.88 841 24.83 -0.5 31.1 44 -11.4 11.5
06:10 1012 29.88 841 24.83 -0.6 30.8 47 -10.5 13.1
06:15 1012 29.88 841 24.83 -0.1 31.8 47 -10 14
06:20 1012 29.88 841 24.83 0.3 32.6 47 -9.8 14.4
06:25 1012 29.88 841 24.83 0.3 32.6 49 -9.1 15.5
06:30 1012 29.88 841 24.83 -0.1 31.9 46 -10.4 13.3
06:35 1011 29.85 841 24.83 -0.8 30.6 49 -10.2 13.7
06:40 1011 29.85 841 24.83 -0.5 31 49 -10.1 13.9
06:45 1011 29.85 840 24.81 -0.5 31.1 51 -9.5 14.9
06:50 1011 29.85 840 24.81 -0.6 31 52 -9.4 15.2
06:55 1011 29.85 840 24.81 -0.6 30.9 50 -9.8 14.3
07:00 1011 29.85 840 24.81 -1 30.1 53 -9.6 14.8
07:05 1010 29.83 839 24.78 -0.6 30.9 51 -9.6 14.6
07:10 1010 29.83 839 24.78 -0.7 30.7 52 -9.5 14.9
07:15 1010 29.83 839 24.78 -0.8 30.5 55 -8.8 16.1
07:20 1010 29.83 839 24.78 -0.2 31.6 52 -9 15.7
07:25 1010 29.83 839 24.78 -0.1 31.8 53 -8.6 16.5
07:30 1010 29.83 839 24.78 -0.3 31.5 54 -8.5 16.8
07:35 1010 29.83 839 24.78 -0.1 31.8 54 -8.2 17.2
07:40 1009 29.8 839 24.78 0.3 32.6 52 -8.5 16.8
07:45 1009 29.8 839 24.78 1.2 34.2 50 -8.1 17.4
07:50 1009 29.8 838 24.75 1.3 34.3 51 -7.8 17.9
07:55 1009 29.8 838 24.75 1.2 34.2 50 -8 17.6
08:00 1009 29.8 838 24.75 1.4 34.5 49 -8.1 17.4
08:05 1009 29.8 838 24.75 1.7 35.1 49 -7.8 17.9
08:10 1009 29.8 838 24.75 1.5 34.7 51 -7.7 18.1
08:15 1009 29.8 838 24.75 1.3 34.4 50 -8.1 17.5
08:20 1009 29.8 838 24.75 1.9 35.5 48 -8 17.6
08:25 1009 29.8 838 24.75 2.3 36.2 49 -7.3 18.8
08:30 1009 29.8 838 24.75 2.5 36.5 49 -7.2 19
08:35 1009 29.8 838 24.75 2.9 37.2 48 -7 19.4
08:40 1009 29.8 838 24.75 3 37.3 49 -6.7 20
08:45 1009 29.8 838 24.75 2.8 37 50 -6.7 19.9
08:50 1009 29.8 838 24.75 2.6 36.7 50 -6.9 19.5
08:55 1009 29.8 838 24.75 2.6 36.6 50 -7 19.5
09:00 1009 29.8 838 24.75 2.6 36.7 50 -6.7 20
09:05 1008 29.77 838 24.75 2.7 36.9 49 -7 19.3
09:10 1009 29.8 838 24.75 3 37.4 49 -6.6 20.1
09:15 1009 29.8 838 24.75 2.9 37.2 49 -6.8 19.8
09:20 1009 29.8 838 24.75 2.8 37 49 -6.8 19.8
09:25 1009 29.8 838 24.75 3 37.4 48 -7 19.5
09:30 1008 29.77 838 24.75 3 37.4 49 -6.6 20.1
09:35 1008 29.77 838 24.75 3 37.3 49 -6.8 19.8
09:40 1008 29.77 838 24.75 3.2 37.7 49 -6.5 20.3
09:45 1008 29.77 837 24.72 3.1 37.5 49 -6.6 20.1
09:50 1008 29.77 837 24.72 3.1 37.6 48 -6.8 19.8
09:55 1008 29.77 838 24.75 3 37.5 49 -6.7 20
10:00 1008 29.77 837 24.72 2.9 37.3 49 -6.7 19.9
10:05 1008 29.77 837 24.72 2.9 37.2 49 -6.7 20
10:10 1008 29.77 837 24.72 3.1 37.6 49 -6.6 20.2
10:15 1008 29.77 837 24.72 3.6 38.5 48 -6.4 20.5
10:20 1008 29.77 837 24.72 4.1 39.3 47 -6.4 20.6
10:25 1008 29.77 837 24.72 4.5 40.2 47 -5.8 21.5
10:30 1008 29.77 837 24.72 4.9 40.8 46 -5.8 21.6
10:35 1008 29.77 837 24.72 5.4 41.7 45 -5.7 21.7
10:40 1008 29.77 837 24.72 5.8 42.4 43 -5.8 21.6
10:45 1008 29.77 837 24.72 6.1 42.9 43 -5.5 22.1
10:50 1008 29.77 837 24.72 6.2 43.2 43 -5.3 22.5
10:55 1008 29.77 837 24.72 6.2 43.2 43 -5.3 22.4
11:00 1008 29.77 837 24.72 6.3 43.3 43 -5.4 22.2
11:05 1008 29.77 837 24.72 6.4 43.5 44 -4.9 23.2
11:10 1008 29.77 837 24.72 6.2 43.1 45 -4.7 23.5
11:15 1008 29.77 837 24.72 6 42.8 44 -5.3 22.5
11:20 1008 29.77 837 24.72 6.2 43.1 44 -5.2 22.7
11:25 1008 29.77 837 24.72 6.2 43.2 44 -5.1 22.8
11:30 1008 29.77 837 24.72 6.4 43.6 43 -5.3 22.4
11:35 1008 29.77 837 24.72 6.6 43.9 43 -5.2 22.7
11:40 1008 29.77 837 24.72 6.5 43.6 44 -4.8 23.3
11:45 1008 29.77 837 24.72 6.3 43.3 45 -4.7 23.5
11:50 1007 29.74 837 24.72 6.3 43.4 45 -4.6 23.7
11:55 1007 29.74 836 24.69 6.6 43.8 45 -4.6 23.6
12:00 1007 29.74 836 24.69 6.6 43.9 45 -4.6 23.7
12:05 1007 29.74 836 24.69 6.5 43.8 45 -4.6 23.6
12:10 1006 29.71 836 24.69 6.7 44 43 -4.9 23.2
12:15 1006 29.71 835 24.66 6.7 44.1 44 -4.7 23.6
12:20 1006 29.71 835 24.66 6.7 44.1 44 -4.7 23.6
12:25 1006 29.71 836 24.69 6.7 44 44 -4.6 23.8
12:30 1006 29.71 836 24.69 6.7 44.1 43 -4.9 23.2
12:35 1006 29.71 835 24.66 6.9 44.4 42 -5.1 22.9
12:40 1006 29.71 836 24.69 6.9 44.4 44 -4.5 23.9
12:45 1006 29.71 836 24.69 6.8 44.3 45 -4.4 24.1
12:50 1006 29.71 836 24.69 6.7 44.1 44 -4.6 23.7
12:55 1006 29.71 835 24.66 7 44.6 42 -5.1 22.8
13:00 1006 29.71 836 24.69 7.1 44.7 44 -4.3 24.3
13:05 1006 29.71 836 24.69 7.1 44.7 43 -4.5 23.8
13:10 1006 29.71 836 24.69 7.1 44.7 43 -4.6 23.7
13:15 1006 29.71 835 24.66 7 44.6 46 -3.9 24.9
13:20 1006 29.71 835 24.66 6.8 44.2 47 -3.9 25.1
13:25 1006 29.71 835 24.66 6.6 43.9 47 -3.8 25.1
13:30 1006 29.71 835 24.66 6.5 43.7 47 -4 24.8
13:35 1006 29.71 835 24.66 6.6 43.9 47 -4 24.8
13:40 1006 29.71 835 24.66 6.8 44.3 46 -4.1 24.7
13:45 1006 29.71 835 24.66 6.7 44.1 46 -4 24.9
13:50 1006 29.71 835 24.66 6.7 44.1 46 -4 24.8
13:55 1006 29.71 835 24.66 6.6 43.9 48 -3.5 25.7
14:00 1006 29.71 835 24.66 6.5 43.7 49 -3.5 25.7
14:05 1006 29.71 835 24.66 6.5 43.6 50 -3.3 26.1
14:10 1006 29.71 835 24.66 6.4 43.6 50 -3.3 26.1
14:15 1006 29.71 835 24.66 6.5 43.7 48 -3.8 25.2
14:20 1006 29.71 835 24.66 6.6 43.9 47 -3.8 25.1
14:25 1006 29.71 835 24.66 6.6 43.9 48 -3.7 25.3
14:30 1006 29.71 835 24.66 6.7 44 47 -3.8 25.2
14:35 1006 29.71 835 24.66 6.7 44.1 48 -3.6 25.5
14:40 1005 29.68 835 24.66 6.8 44.3 47 -3.7 25.4
14:45 1006 29.71 835 24.66 6.8 44.2 48 -3.4 25.9
14:50 1006 29.71 835 24.66 6.6 44 49 -3.3 26.1
14:55 1006 29.71 835 24.66 6.5 43.6 49 -3.4 25.9
15:00 1006 29.71 835 24.66 6.5 43.6 49 -3.4 25.8
15:05 1006 29.71 835 24.66 6.5 43.6 48 -3.8 25.2
15:10 1006 29.71 835 24.66 6.6 44 46 -4 24.8
15:15 1006 29.71 835 24.66 6.6 43.9 45 -4.4 24
15:20 1006 29.71 835 24.66 6.8 44.2 43 -4.8 23.3
15:25 1006 29.71 835 24.66 7 44.5 43 -4.7 23.5
15:30 1006 29.71 835 24.66 7.1 44.8 43 -4.5 23.9
15:35 1006 29.71 835 24.66 7.1 44.7 44 -4.5 24
15:40 1006 29.71 835 24.66 7.3 45.1 43 -4.5 23.9
15:45 1006 29.71 835 24.66 7.6 45.6 42 -4.4 24.1
15:50 1006 29.71 835 24.66 7.7 45.8 43 -4.2 24.5
15:55 1006 29.71 835 24.66 7.7 45.8 43 -4.2 24.4
16:00 1006 29.71 835 24.66 7.8 46.1 41 -4.6 23.8
16:05 1006 29.71 835 24.66 7.8 46.1 42 -4.2 24.5
16:10 1006 29.71 835 24.66 7.8 46 41 -4.7 23.5
16:15 1006 29.71 835 24.66 7.9 46.2 41 -4.5 23.9
16:20 1006 29.71 835 24.66 8 46.4 42 -4.3 24.3
16:25 1006 29.71 835 24.66 7.8 46 42 -4.2 24.4
16:30 1006 29.71 835 24.66 7.6 45.6 42 -4.4 24
16:35 1006 29.71 835 24.66 7.6 45.6 44 -4 24.8
16:40 1006 29.71 835 24.66 7.6 45.7 44 -3.9 24.9
16:45 1006 29.71 835 24.66 7.6 45.6 44 -3.9 25
16:50 1006 29.71 835 24.66 7.5 45.6 44 -3.9 25
16:55 1006 29.71 835 24.66 7.6 45.6 44 -3.8 25.2
17:00 1006 29.71 836 24.69 7.5 45.4 43 -4.2 24.5
17:05 1006 29.71 836 24.69 7.5 45.4 43 -4.3 24.2
17:10 1007 29.74 836 24.69 7.5 45.5 43 -4.4 24.1
17:15 1007 29.74 836 24.69 7.6 45.7 43 -4.3 24.2
17:20 1007 29.74 836 24.69 7.6 45.6 42 -4.4 24.1
17:25 1007 29.74 836 24.69 7.6 45.6 43 -4.3 24.3
17:30 1007 29.74 836 24.69 7.5 45.5 42 -4.6 23.7
17:35 1007 29.74 836 24.69 7.5 45.4 41 -4.9 23.1
17:40 1007 29.74 837 24.72 7.5 45.4 40 -5.2 22.7
17:45 1007 29.74 837 24.72 7.4 45.3 41 -5.2 22.7
17:50 1008 29.77 837 24.72 7.3 45.2 41 -5.1 22.9
17:55 1008 29.77 837 24.72 7.2 45 41 -5.1 22.8
18:00 1008 29.77 837 24.72 7.1 44.8 42 -4.8 23.3
18:05 1008 29.77 837 24.72 7.1 44.7 42 -5 23.1
18:10 1008 29.77 837 24.72 6.9 44.4 44 -4.6 23.8
18:15 1008 29.77 837 24.72 6.8 44.3 43 -4.8 23.4
18:20 1008 29.77 837 24.72 6.7 44.1 43 -4.9 23.2
18:25 1008 29.77 838 24.75 6.6 43.9 44 -4.7 23.6
18:30 1008 29.77 838 24.75 6.4 43.5 45 -4.7 23.5
18:35 1009 29.8 838 24.75 6.3 43.3 45 -4.9 23.2
18:40 1009 29.8 838 24.75 6.2 43.2 45 -4.9 23.2
18:45 1009 29.8 838 24.75 6.1 43.1 46 -4.6 23.7
18:50 1009 29.8 838 24.75 5.9 42.6 47 -4.5 24
18:55 1009 29.8 838 24.75 5.8 42.4 48 -4.5 24
19:00 1009 29.8 838 24.75 5.7 42.2 48 -4.5 23.8
19:05 1009 29.8 839 24.78 5.7 42.2 48 -4.6 23.8
19:10 1009 29.8 839 24.78 5.7 42.2 48 -4.6 23.8
19:15 1009 29.8 839 24.78 5.7 42.3 48 -4.5 23.8
19:20 1010 29.83 839 24.78 5.7 42.2 49 -4.2 24.4
19:25 1010 29.83 839 24.78 5.5 42 48 -4.6 23.8
19:30 1010 29.83 839 24.78 5.5 41.9 48 -4.7 23.6
19:35 1010 29.83 839 24.78 5.6 42.1 48 -4.6 23.7
19:40 1010 29.83 839 24.78 5.6 42.1 46 -5 23
19:45 1010 29.83 839 24.78 5.6 42.1 47 -4.8 23.4
19:50 1010 29.83 839 24.78 5.5 41.9 48 -4.5 23.8
19:55 1010 29.83 839 24.78 5.4 41.6 49 -4.6 23.7
20:00 1010 29.83 839 24.78 5.3 41.5 48 -4.8 23.3
20:05 1010 29.83 839 24.78 5.3 41.5 48 -4.9 23.2
20:10 1010 29.83 839 24.78 5.2 41.3 48 -5 23.1
20:15 1010 29.83 839 24.78 5.1 41.2 48 -5 23
20:20 1010 29.83 839 24.78 5.1 41.2 48 -4.9 23.2
20:25 1010 29.83 840 24.81 5 41 49 -5 23
20:30 1010 29.83 840 24.81 4.9 40.9 48 -5.1 22.8
20:35 1010 29.83 840 24.81 4.9 40.8 48 -5.3 22.5
20:40 1010 29.83 840 24.81 4.9 40.8 47 -5.4 22.3
20:45 1010 29.83 840 24.81 4.8 40.6 48 -5.2 22.6
20:50 1010 29.83 840 24.81 4.7 40.4 49 -5.1 22.8
20:55 1010 29.83 840 24.81 4.5 40.1 50 -5 22.9
21:00 1010 29.83 840 24.81 4.4 39.9 50 -5.2 22.6
21:05 1010 29.83 840 24.81 4.3 39.8 50 -5.2 22.7
21:10 1010 29.83 840 24.81 4.2 39.6 52 -4.9 23.2
21:15 1010 29.83 840 24.81 4.2 39.5 50 -5.2 22.6
21:20 1010 29.83 840 24.81 4.2 39.6 50 -5.2 22.6
21:25 1010 29.83 840 24.81 4.1 39.5 51 -5.1 22.7
21:30 1010 29.83 840 24.81 4 39.2 50 -5.4 22.3
21:35 1011 29.85 840 24.81 4 39.1 50 -5.7 21.8
21:40 1011 29.85 840 24.81 4 39.1 48 -6.1 21.1
21:45 1011 29.85 840 24.81 4 39.2 48 -6.1 21.1
21:50 1011 29.85 840 24.81 4 39.2 48 -6.2 20.9
21:55 1011 29.85 840 24.81 4 39.2 49 -5.7 21.8
22:00 1011 29.85 840 24.81 3.8 38.9 50 -5.6 21.9
22:05 1011 29.85 840 24.81 3.8 38.9 49 -5.9 21.5
22:10 1011 29.85 840 24.81 3.9 39 49 -5.8 21.5
22:15 1011 29.85 840 24.81 3.9 39 49 -5.9 21.3
22:20 1011 29.85 840 24.81 3.9 39 49 -5.8 21.6
22:25 1011 29.85 840 24.81 3.8 38.9 49 -6 21.2
22:30 1011 29.85 840 24.81 3.9 39.1 49 -5.9 21.3
22:35 1011 29.85 840 24.81 4 39.3 48 -6 21.2
22:40 1011 29.85 840 24.81 4.1 39.5 49 -5.7 21.7
22:45 1011 29.85 840 24.81 4 39.2 49 -5.8 21.5
22:50 1011 29.85 840 24.81 3.9 39 49 -5.8 21.6
22:55 1011 29.85 840 24.81 3.8 38.9 49 -5.9 21.4
23:00 1011 29.85 840 24.81 3.7 38.7 49 -6 21.1
23:05 1011 29.85 840 24.81 3.8 38.9 48 -6.2 20.8
23:10 1011 29.85 840 24.81 3.9 38.9 48 -6.1 21
23:15 1011 29.85 840 24.81 3.8 38.9 48 -6.3 20.7
23:20 1011 29.85 840 24.81 3.8 38.8 48 -6.3 20.7
23:25 1011 29.85 840 24.81 3.8 38.8 48 -6.3 20.6
23:30 1011 29.85 840 24.81 3.8 38.9 47 -6.6 20.2
23:35 1011 29.85 840 24.81 4 39.1 46 -6.6 20.1
23:40 1011 29.85 840 24.81 4 39.2 47 -6.4 20.5
23:45 1011 29.85 840 24.81 4 39.1 47 -6.3 20.7
23:50 1011 29.85 840 24.81 3.9 39 47 -6.5 20.3
23:55 1011 29.85 840 24.81 3.9 39 47 -6.5 20.4
24:00 1011 29.85 840 24.81 3.6 38.5 48 -6.4 20.5